الصفحة الرئيسية
METAR-TAF:

METAR-TAF

مطار :

نادي, فيجي

دائرة عرض: 17-45S, خط طول: 177-27E, ارتفاع: 13 متر

مراقبة الطقس الحالي

تاريخ ووقت الإصدار 12 دقيقة قبل الساعة 13:00UTC
ريح 2 عقدةمن اتجاهات متغيرة
درجة الحرارة 23°درجة مئوية
الرطوبة 100%
ضغط 1001 hPa
الرؤية 10 كم أو أكثر
غيوم قليلة على ارتفاع 3000 قدم

METAR: NFFN 261300Z VRB02KT 9999 FEW030 23/23 Q1001 NOSIG

زمن: 01:12 (13:12 UTC)

توقعات

تاريخ ووقت الإصدار 2ساعات و 2 دقيقة قبل الساعة 11:10UTC
التوقعات صالحة من26 الساعة 12 UTC إلى 27 الساعة 12 UTC
ريح 6 عقدة من الشرق
الرؤية 10 كم أو أكثر
غيوم قليلة على ارتفاع 2600 قدم
غيوم متفرقة على ارتفاع 10000 قدم
مؤقت
من 27 الساعة 02 UTC إلى 27 الساعة 06 UTC
الرؤية: 3000 متر
غيوم مفككة على ارتفاع 1500 قدم
غيوم قليلة على ارتفاع 1800 قدم, مزنة ركامية.
غيوم مفككة على ارتفاع 1500 قدم
غيوم قليلة على ارتفاع 1600 قدم, مزنة ركامية.
عاصفة رعدية, مطر, عاصفة رعدية, مطر

TAF: NFFN 261110Z 2612/2712 10006KT 9999 FEW026 SCT100 TEMPO 2702/2706 5000 TSRA BKN015 FEW018CB TEMPO2706/2712 3000 TSRA BKN015 FEW016CB

أرصاد الطقس والتوقعات من أكثر من 4000 مطار (تقارير الطقس للمطار METAR والتنبؤ بالطقس بالمطارTAF).

المحطات المتاحة هي النقط الصفراء والحمراء على الخريطة.

حرك المؤشر فوق النقطة لمعرفة اسم المحطة.

ثم انقر لمعرفة أرصاد وتوقعات الطقس.

لتغيير الخارطة: اضغط على الأزرار الخضراء مع رمز الصليب الأسود للتكبير. على الزر الأخضر مع شرطة للتصغير، أو على الأسهم الخضراء للخرائط المجاورة.


METAR-TAF: